METAR Data
IDs: Format: Raw Decoded Include TAF

Data at: 0940 UTC 18 Jan 2022

KANK 180935Z AUTO 35004KT 10SM CLR 02/M15 A3003 RMK AO1 T00161151
KANK 180915Z AUTO 35009KT 10SM CLR 02/M15 A3002 RMK AO1 T00151150
KANK 180855Z AUTO 34007KT 10SM CLR 01/M15 A3003 RMK AO1 T00131155
KANK 180835Z AUTO 31005KT 10SM CLR 03/M16 A3003 RMK AO1 T00271157
KANK 180815Z AUTO 33004KT 10SM CLR 03/M16 A3002 RMK AO1 T00251157
KANK 180755Z AUTO 34005KT 10SM CLR 01/M15 A3003 RMK AO1 T00141153
KANK 180735Z AUTO 35003KT 10SM CLR 01/M15 A3003 RMK AO1 T00081146
KANK 180715Z AUTO 00000KT 10SM CLR 03/M18 A3004 RMK AO1 T00311182
KANK 180655Z AUTO 31008KT 10SM CLR 04/M18 A3005 RMK AO1 T00351182
KANK 180635Z AUTO 32006KT 10SM CLR 04/M16 A3005 RMK AO1 T00391162
KANK 180615Z AUTO 33007KT 10SM CLR 04/M14 A3006 RMK AO1 T00401145
KANK 180555Z AUTO 33007KT 10SM CLR 04/M14 A3007 RMK AO1 T00391144 10091 20027 401201044
KANK 180535Z AUTO 34009KT 10SM CLR 03/M14 A3007 RMK AO1 T00331139
KANK 180515Z AUTO 35005KT 10SM CLR 04/M14 A3007 RMK AO1 T00361143
KANK 180455Z AUTO 31006KT 10SM CLR 03/M18 A3007 RMK AO1 T00331180
KANK 180435Z AUTO 28003KT 10SM CLR 03/M15 A3007 RMK AO1 T00311154
KANK 180415Z AUTO 26004KT 10SM CLR 04/M17 A3007 RMK AO1 T00431172
KANK 180355Z AUTO 30004KT 10SM CLR 03/M15 A3007 RMK AO1 T00311150
KANK 180335Z AUTO 00000KT 10SM CLR 04/M15 A3008 RMK AO1 T00351152
KANK 180315Z AUTO 26003KT 10SM CLR 03/M15 A3009 RMK AO1 T00311155
KANK 180255Z AUTO 00000KT 10SM CLR 05/M16 A3009 RMK AO1 T00491156
KANK 180235Z AUTO 00000KT 10SM CLR 05/M16 A3009 RMK AO1 T00461158
KANK 180215Z AUTO 29003KT 10SM CLR 06/M18 A3009 RMK AO1 T00611181
KANK 180155Z AUTO 24010G15KT 10SM CLR 07/M21 A3008 RMK AO1 T00671207
KANK 180135Z AUTO 23012G18KT 10SM CLR 07/M21 A3007 RMK AO1 T00721207
KANK 180115Z AUTO 22011G17KT 10SM CLR 07/M20 A3007 RMK AO1 T00721202
KANK 180055Z AUTO 21014G18KT 10SM CLR 08/M20 A3007 RMK AO1 T00761202
KANK 180035Z AUTO 22015G20KT 10SM CLR 08/M20 A3007 RMK AO1 T00821197
KANK 180015Z AUTO 23013G16KT 10SM CLR 09/M19 A3006 RMK AO1 T00851189
KANK 172355Z AUTO 23011G18KT 10SM CLR 10/M18 A3006 RMK AO1 T00971178 10120 20074
KANK 172335Z AUTO 23013G18KT 10SM CLR 10/M17 A3005 RMK AO1 T01011171
KANK 172315Z AUTO 22008G14KT 10SM CLR 10/M18 A3005 RMK AO1 T01041182
KANK 172255Z AUTO 21015G20KT 10SM CLR 11/M18 A3005 RMK AO1 T01071183
KANK 172235Z AUTO 21012G17KT 10SM CLR 11/M19 A3006 RMK AO1 T01111187
KANK 172215Z AUTO 22011G16KT 10SM CLR 12/M17 A3005 RMK AO1 T01201170
KANK 172155Z AUTO 23008G15KT 10SM CLR 11/M18 A3006 RMK AO1 T01121183
KANK 172135Z AUTO 25007G14KT 10SM CLR 12/M19 A3005 RMK AO1 T01171190
KANK 172115Z AUTO 24007G18KT 10SM CLR 11/M19 A3006 RMK AO1 T01131189
KANK 172055Z AUTO 24007KT 10SM CLR 11/M19 A3006 RMK AO1 T01111187
KANK 172035Z AUTO 24008G17KT 10SM CLR 11/M20 A3007 RMK AO1 T01071198
KANK 172015Z AUTO 23012G16KT 10SM CLR 11/M20 A3007 RMK AO1 T01071202
KANK 171955Z AUTO 23009G19KT 10SM CLR 10/M20 A3011 RMK AO1 T01041203
KANK 171935Z AUTO 22013G20KT 10SM CLR 11/M21 A3011 RMK AO1 T01071207
KANK 171915Z AUTO 22013G20KT 10SM CLR 10/M20 A3012 RMK AO1 T01021204
KANK 171855Z AUTO 26006KT 10SM CLR 09/M16 A3014 RMK AO1 T00941163
KANK 171835Z AUTO 34009KT 10SM CLR 08/M16 A3014 RMK AO1 T00811163
KANK 171815Z AUTO 34009G16KT 10SM CLR 08/M16 A3016 RMK AO1 T00811160
KANK 171755Z AUTO 35010G15KT 10SM CLR 07/M16 A3017 RMK AO1 T00711156 10071 21011
KANK 171735Z AUTO 34010KT 10SM CLR 06/M15 A3017 RMK AO1 T00631155
KANK 171715Z AUTO 33008KT 10SM CLR 05/M15 A3019 RMK AO1 T00451149
KANK 171655Z AUTO 34012KT 10SM CLR 04/M15 A3019 RMK AO1 T00361147
KANK 171635Z AUTO 33009KT 10SM CLR 02/M14 A3020 RMK AO1 T00231145
KANK 171615Z AUTO 34010KT 10SM CLR 01/M14 A3020 RMK AO1 T00081145
KANK 171555Z AUTO 34008KT 10SM CLR 00/M15 A3019 RMK AO1 T10031147
KANK 171535Z AUTO 34008KT 10SM CLR M01/M15 A3019 RMK AO1 T10071147
KANK 171515Z AUTO 34007KT 10SM CLR 00/M15 A3019 RMK AO1 T10051150
KANK 171455Z AUTO 34007KT 10SM CLR M01/M15 A3019 RMK AO1 T10101148
KANK 171435Z AUTO 33011KT 10SM CLR M01/M15 A3019 RMK AO1 T10081152
KANK 171415Z AUTO 33009KT 10SM CLR 00/M15 A3019 RMK AO1 T10031155
KANK 171355Z AUTO 33008KT 10SM CLR 00/M15 A3019 RMK AO1 T10051155
KANK 171335Z AUTO 34009KT 10SM CLR M01/M16 A3019 RMK AO1 T10061156
KANK 171315Z AUTO 34009KT 10SM CLR M01/M16 A3019 RMK AO1 T10061159
KANK 171255Z AUTO 33009KT 10SM CLR M01/M16 A3018 RMK AO1 T10061161
KANK 171235Z AUTO 33008KT 10SM CLR 00/M16 A3018 RMK AO1 T10051164
KANK 171215Z AUTO 33010KT 10SM CLR 00/M17 A3019 RMK AO1 T10041166
KANK 171155Z AUTO 33010KT 10SM CLR 00/M17 A3019 RMK AO1 T10021167 11001 21044
KANK 171135Z AUTO 34011KT 10SM CLR 00/M17 A3019 RMK AO1 T10051170
KANK 171115Z AUTO 35006KT 10SM CLR M02/M18 A3019 RMK AO1 T10171177
KANK 171055Z AUTO 00000KT 10SM CLR M04/M18 A3019 RMK AO1 T10371185
KANK 171035Z AUTO 33005KT 10SM CLR M01/M17 A3019 RMK AO1 T10111175
KANK 171015Z AUTO 34006KT 10SM CLR M01/M18 A3019 RMK AO1 T10151176
KANK 170955Z AUTO 35008KT 10SM CLR M01/M17 A3019 RMK AO1 T10141173
KANK 170935Z AUTO 34007G14KT 10SM CLR M02/M17 A3020 RMK AO1 T10161173
KANK 170915Z AUTO 35005KT 10SM CLR M02/M17 A3021 RMK AO1 T10181175
KANK 170855Z AUTO 35003KT 10SM CLR M02/M18 A3021 RMK AO1 T10241180
KANK 170835Z AUTO 34006KT 10SM CLR M02/M17 A3021 RMK AO1 T10161175
KANK 170815Z AUTO 33003KT 10SM CLR M03/M18 A3022 RMK AO1 T10311181
KANK 170755Z AUTO 26005KT 10SM CLR M02/M18 A3023 RMK AO1 T10241184
KANK 170735Z AUTO 33003KT 10SM CLR M02/M18 A3024 RMK AO1 T10211181
KANK 170715Z AUTO 00000KT 10SM CLR M02/M18 A3025 RMK AO1 T10251182
KANK 170655Z AUTO 36005KT 10SM CLR M01/M18 A3025 RMK AO1 T10151180
KANK 170635Z AUTO 34006KT 10SM CLR M01/M18 A3025 RMK AO1 T10071180
KANK 170615Z AUTO 32003KT 10SM CLR M01/M18 A3025 RMK AO1 T10111180
KANK 170555Z AUTO 36005KT 10SM CLR M02/M19 A3025 RMK AO1 T10171191 10081 21017 401151037
KANK 170535Z AUTO 00000KT 10SM CLR 00/M19 A3025 RMK AO1 T00011189
KANK 170515Z AUTO 32007KT 10SM CLR 02/M19 A3026 RMK AO1 T00231186
KANK 170455Z AUTO 35008KT 10SM CLR 03/M19 A3025 RMK AO1 T00261190
KANK 170435Z AUTO 04005KT 10SM CLR 03/M20 A3025 RMK AO1 T00251204
KANK 170415Z AUTO 30007KT 10SM CLR 03/M21 A3025 RMK AO1 T00271207
KANK 170355Z AUTO 31007KT 10SM CLR 02/M21 A3025 RMK AO1 T00221206
KANK 170335Z AUTO 31008KT 10SM CLR 02/M20 A3025 RMK AO1 T00221203
KANK 170315Z AUTO 33007KT 10SM CLR 03/M20 A3025 RMK AO1 T00281204
KANK 170255Z AUTO 27009KT 10SM CLR 03/M21 A3025 RMK AO1 T00341208
KANK 170235Z AUTO 27006KT 10SM CLR 03/M21 A3025 RMK AO1 T00331213
KANK 170215Z AUTO 31007KT 10SM CLR 03/M21 A3025 RMK AO1 T00341214
KANK 170155Z AUTO 28008KT 10SM CLR 04/M21 A3025 RMK AO1 T00441214
KANK 170135Z AUTO 26008KT 10SM CLR 06/M21 A3024 RMK AO1 T00551214
KANK 170115Z AUTO 24009G16KT 10SM CLR 07/M22 A3023 RMK AO1 T00681220
KANK 170055Z AUTO 24010KT 10SM CLR 07/M22 A3022 RMK AO1 T00701220
KANK 170035Z AUTO 23009G15KT 10SM CLR 08/M22 A3021 RMK AO1 T00751220
KANK 170015Z AUTO 26011G18KT 10SM CLR 08/M21 A3021 RMK AO1 T00781215
KANK 162355Z AUTO 25013G18KT 10SM CLR 08/M21 A3021 RMK AO1 T00801213 10115 20079
KANK 162335Z AUTO 25009G16KT 10SM CLR 09/M22 A3019 RMK AO1 T00891220
KANK 162315Z AUTO 23009G16KT 210V270 10SM CLR 10/M22 A3021 RMK AO1 T00961220
KANK 162255Z AUTO 22009G15KT 170V250 10SM CLR 11/M21 A3021 RMK AO1 T01061213
KANK 162235Z AUTO 22012G16KT 10SM CLR 11/M21 A3020 RMK AO1 T01101212
KANK 162215Z AUTO 22008G14KT 10SM CLR 11/M21 A3020 RMK AO1 T01101210
KANK 162155Z AUTO 23010G17KT 10SM CLR 11/M21 A3020 RMK AO1 T01121210